createdAt,value
2019-02-22T00:00:52.156Z,19.33
2019-02-22T00:06:47.117Z,20.29
2019-02-22T00:12:42.093Z,21.89
2019-02-22T00:18:37.117Z,21.93
2019-02-22T00:24:32.138Z,21.48
2019-02-22T00:30:27.205Z,22.73
2019-02-22T00:36:22.206Z,24.01
2019-02-22T00:42:17.113Z,26.63
2019-02-22T00:48:12.122Z,23.35
2019-02-22T00:54:07.131Z,24.7
2019-02-22T01:00:02.197Z,25.94
2019-02-22T01:05:57.165Z,26.2
2019-02-22T01:11:52.159Z,23.79
2019-02-22T01:17:47.146Z,23.7
2019-02-22T01:23:42.201Z,23.52
2019-02-22T01:29:37.179Z,22.93
2019-02-22T01:35:32.218Z,25.23
2019-02-22T01:41:27.167Z,25.23
2019-02-22T01:47:22.167Z,23.99
2019-02-22T01:53:17.175Z,25.73
2019-02-22T01:59:12.180Z,25.88
2019-02-22T02:05:07.211Z,26.22
2019-02-22T02:11:02.192Z,26.18
2019-02-22T02:16:57.182Z,26.8
2019-02-22T02:22:52.180Z,25.7
2019-02-22T02:28:47.192Z,25.96
2019-02-22T02:34:42.195Z,27.39
2019-02-22T02:40:37.225Z,27.83
2019-02-22T02:46:32.201Z,26.33
2019-02-22T02:52:27.203Z,24.93
2019-02-22T02:58:22.199Z,25.05
2019-02-22T03:04:17.212Z,23.91
2019-02-22T03:10:12.205Z,25.21
2019-02-22T03:16:07.231Z,25.21
2019-02-22T03:22:02.210Z,25.31
2019-02-22T03:27:57.214Z,25.71
2019-02-22T03:33:52.218Z,24.5
2019-02-22T03:39:47.215Z,24.12
2019-02-22T03:45:42.227Z,24.81
2019-02-22T03:51:37.243Z,24.72
2019-02-22T03:57:32.229Z,24.57
2019-02-22T04:03:27.218Z,25.78
2019-02-22T04:09:22.260Z,23.09
2019-02-22T04:15:17.233Z,22.73
2019-02-22T04:21:12.234Z,23.77
2019-02-22T04:27:07.249Z,23.73
2019-02-22T04:33:02.279Z,25.19
2019-02-22T04:38:57.265Z,23.09
2019-02-22T04:44:52.249Z,23.6
2019-02-22T04:50:47.266Z,23.31
2019-02-22T04:56:42.261Z,23.04
2019-02-22T05:02:37.294Z,22.87
2019-02-22T05:08:32.253Z,22.29
2019-02-22T05:14:27.309Z,21.92
2019-02-22T05:20:22.274Z,24.9
2019-02-22T05:26:17.297Z,22.36
2019-02-22T05:32:12.330Z,20.83
2019-02-22T05:38:07.300Z,17.99
2019-02-22T05:44:02.286Z,15.8
2019-02-22T05:49:57.307Z,14.18
2019-02-22T05:55:52.308Z,14.63
2019-02-22T06:01:47.327Z,13.6
2019-02-22T06:07:42.310Z,13.8
2019-02-22T06:13:37.322Z,11.98
2019-02-22T06:19:32.306Z,13.51
2019-02-22T06:25:27.299Z,11.34
2019-02-22T06:31:22.326Z,12.17
2019-02-22T06:37:17.303Z,12.44
2019-02-22T06:43:12.325Z,12.68
2019-02-22T06:49:07.335Z,12.39
2019-02-22T06:55:02.313Z,11.85
2019-02-22T07:00:57.313Z,17.48
2019-02-22T07:06:52.322Z,19.43
2019-02-22T07:12:55.947Z,22.5
2019-02-22T07:18:42.341Z,21.76
2019-02-22T07:24:37.351Z,21.78
2019-02-22T07:30:32.390Z,24.45
2019-02-22T07:36:27.396Z,22.24
2019-02-22T07:42:22.334Z,24.43
2019-02-22T07:48:17.385Z,21.04
2019-02-22T07:54:12.375Z,24.18
2019-02-22T08:00:07.474Z,24.73
2019-02-22T08:06:02.386Z,22.56
2019-02-22T08:11:57.377Z,23.06
2019-02-22T08:17:52.383Z,22.06
2019-02-22T08:23:47.376Z,20.9
2019-02-22T08:29:42.419Z,22.65
2019-02-22T08:35:37.372Z,21.95
2019-02-22T08:41:32.381Z,20.94
2019-02-22T08:47:27.387Z,21.69
2019-02-22T08:53:22.373Z,19.72
2019-02-22T08:59:17.388Z,20.82
2019-02-22T09:05:12.415Z,22.45
2019-02-22T09:11:07.431Z,20.84
2019-02-22T09:17:02.412Z,17.89
2019-02-22T09:22:57.420Z,15.37
2019-02-22T09:28:52.399Z,13.18
2019-02-22T09:34:47.416Z,14.07
2019-02-22T09:40:42.402Z,15.38
2019-02-22T09:46:37.416Z,14.22
2019-02-22T09:52:32.435Z,13.21
2019-02-22T09:58:27.445Z,16.58
2019-02-22T10:04:22.422Z,13.16
2019-02-22T10:10:17.421Z,14.04
2019-02-22T10:16:12.473Z,13.22
2019-02-22T10:22:07.449Z,15.15
2019-02-22T10:28:02.445Z,15.44
2019-02-22T10:33:57.441Z,15.44
2019-02-22T10:39:52.498Z,15.97
2019-02-22T10:45:47.504Z,15.2
2019-02-22T10:51:42.427Z,14.06
2019-02-22T10:57:37.464Z,14.22
2019-02-22T11:03:32.464Z,16.24
2019-02-22T11:09:27.473Z,16.08
2019-02-22T11:15:22.468Z,15.68
2019-02-22T11:21:17.474Z,13.93
2019-02-22T11:27:12.543Z,16.32
2019-02-22T11:33:07.521Z,16.9
2019-02-22T11:39:02.491Z,15.55
2019-02-22T11:44:57.498Z,16.93
2019-02-22T11:50:52.535Z,17.89
2019-02-22T11:56:47.480Z,17.51
2019-02-22T12:02:45.099Z,14.74
2019-02-22T12:08:37.499Z,15.76
2019-02-22T12:14:32.537Z,13.09
2019-02-22T12:20:27.503Z,16.1
2019-02-22T12:26:22.507Z,14.54
2019-02-22T12:32:17.531Z,14.71
2019-02-22T12:38:12.536Z,18.1
2019-02-22T12:44:07.519Z,15.8
2019-02-22T12:50:02.513Z,15.78
2019-02-22T12:55:57.556Z,15.37
2019-02-22T13:01:52.537Z,15.78
2019-02-22T13:07:47.534Z,14.59
2019-02-22T13:13:42.520Z,14.67
2019-02-22T13:19:37.536Z,14.44
2019-02-22T13:25:32.541Z,14.38
2019-02-22T13:31:30.249Z,14.71
2019-02-22T13:37:22.552Z,15.25
2019-02-22T13:43:17.534Z,15.97
2019-02-22T13:49:12.548Z,14.87
2019-02-22T13:55:07.529Z,16.35
2019-02-22T14:01:02.541Z,14.77
2019-02-22T14:06:57.555Z,15.84
2019-02-22T14:12:52.560Z,13.5
2019-02-22T14:18:47.577Z,13.42
2019-02-22T14:24:42.562Z,15.53
2019-02-22T14:30:37.559Z,12.8
2019-02-22T14:36:32.610Z,13.78
2019-02-22T14:42:27.568Z,13.57
2019-02-22T14:48:22.596Z,11.91
2019-02-22T14:54:17.629Z,11.55
2019-02-22T15:00:12.618Z,12.39
2019-02-22T15:06:07.580Z,11.83
2019-02-22T15:12:02.604Z,12.41
2019-02-22T15:17:57.580Z,12
2019-02-22T15:23:52.595Z,10.52
2019-02-22T15:29:47.613Z,11.59
2019-02-22T15:35:42.636Z,10.43
2019-02-22T15:41:37.641Z,11.8
2019-02-22T15:47:32.604Z,10.15
2019-02-22T15:53:27.628Z,10.73
2019-02-22T15:59:22.606Z,9.99
2019-02-22T16:05:17.629Z,10.46
2019-02-22T16:11:12.615Z,9.86
2019-02-22T16:17:07.642Z,9.93
2019-02-22T16:23:02.625Z,9.24
2019-02-22T16:28:57.616Z,10.13
2019-02-22T16:34:52.633Z,9.98
2019-02-22T16:40:47.666Z,10.87
2019-02-22T16:46:42.661Z,14.31
2019-02-22T16:52:37.648Z,23.28
2019-02-22T16:58:32.654Z,15.26
2019-02-22T17:04:27.684Z,15.31
2019-02-22T17:10:22.652Z,15.71
2019-02-22T17:16:17.650Z,17.16
2019-02-22T17:22:12.695Z,25.69
2019-02-22T17:28:07.667Z,21.65
2019-02-22T17:34:02.675Z,15.41
2019-02-22T17:39:57.661Z,17.53
2019-02-22T17:45:52.708Z,18.94
2019-02-22T17:51:47.675Z,26.51
2019-02-22T17:57:42.665Z,24.58
2019-02-22T18:03:37.686Z,17.91
2019-02-22T18:09:32.703Z,23.78
2019-02-22T18:15:27.679Z,16.88
2019-02-22T18:21:22.705Z,16.16
2019-02-22T18:27:17.694Z,16.52
2019-02-22T18:33:12.704Z,19.81
2019-02-22T18:39:07.729Z,18.46
2019-02-22T18:45:02.724Z,16.42
2019-02-22T18:50:57.713Z,14.2
2019-02-22T18:56:52.714Z,14.45
2019-02-22T19:02:47.697Z,17.86
2019-02-22T19:08:42.728Z,20.45
2019-02-22T19:14:37.723Z,22.29
2019-02-22T19:20:32.743Z,21.49
2019-02-22T19:26:27.752Z,21.27
2019-02-22T19:32:22.725Z,22.7
2019-02-22T19:38:17.755Z,24.03
2019-02-22T19:44:12.739Z,22.56
2019-02-22T19:50:07.755Z,23.48
2019-02-22T19:56:02.761Z,18.11
2019-02-22T20:01:57.811Z,24.99
2019-02-22T20:07:52.756Z,20.18
2019-02-22T20:13:47.837Z,20.38
2019-02-22T20:19:42.751Z,18.53
2019-02-22T20:25:37.765Z,15.3
2019-02-22T20:31:32.827Z,16.27
2019-02-22T20:37:27.794Z,18.87
2019-02-22T20:43:22.760Z,20.13
2019-02-22T20:49:17.825Z,17.04
2019-02-22T20:55:12.791Z,15.64
2019-02-22T21:01:14.616Z,15.04
2019-02-22T21:07:02.784Z,15.24
2019-02-22T21:12:57.811Z,23.19
2019-02-22T21:18:52.767Z,16.41
2019-02-22T21:24:48.093Z,18.89
2019-02-22T21:30:42.817Z,18.33
2019-02-22T21:36:37.830Z,19.84
2019-02-22T21:42:32.799Z,19.61
2019-02-22T21:48:27.957Z,17.56
2019-02-22T21:54:22.809Z,18.43
2019-02-22T22:00:17.815Z,18.52
2019-02-22T22:06:12.829Z,17.9
2019-02-22T22:12:07.826Z,16.37
2019-02-22T22:18:02.901Z,14.53
2019-02-22T22:23:57.826Z,18.41
2019-02-22T22:29:52.830Z,27.13
2019-02-22T22:35:47.827Z,17.49
2019-02-22T22:41:42.827Z,18.85
2019-02-22T22:47:37.865Z,14.57
2019-02-22T22:53:32.827Z,23.29
2019-02-22T22:59:27.882Z,21.27
2019-02-22T23:05:22.850Z,15.24
2019-02-22T23:11:17.865Z,14.88
2019-02-22T23:17:12.861Z,15.18
2019-02-22T23:23:07.870Z,14.38
2019-02-22T23:29:02.858Z,15.37
2019-02-22T23:34:57.855Z,15.43
2019-02-22T23:40:52.865Z,14.29
2019-02-22T23:46:47.880Z,16.27
2019-02-22T23:52:42.890Z,13.63
2019-02-22T23:58:37.944Z,14.02
